createdAt,value
2017-11-13T00:01:35.488Z,99891.52
2017-11-13T00:04:01.260Z,99891.81
2017-11-13T00:06:27.058Z,99889.98
2017-11-13T00:08:52.824Z,99886.73
2017-11-13T00:11:18.594Z,99879.28
2017-11-13T00:13:44.373Z,99875.39
2017-11-13T00:16:10.157Z,99865.25
2017-11-13T00:18:35.932Z,99862.77
2017-11-13T00:21:01.709Z,99856.86
2017-11-13T00:23:28.370Z,99858.77
2017-11-13T00:25:54.149Z,99861.00
2017-11-13T00:28:19.922Z,99865.88
2017-11-13T00:30:46.525Z,99874.78
2017-11-13T00:33:12.305Z,99876.42
2017-11-13T00:35:38.091Z,99876.34
2017-11-13T00:38:03.866Z,99878.61
2017-11-13T00:40:29.639Z,99880.23
2017-11-13T00:42:55.416Z,99882.55
2017-11-13T00:45:21.225Z,99884.45
2017-11-13T00:47:47.005Z,99885.03
2017-11-13T00:50:12.777Z,99882.92
2017-11-13T00:52:38.653Z,99885.07
2017-11-13T00:55:05.383Z,99888.63
2017-11-13T00:57:31.153Z,99891.52
2017-11-13T00:59:56.969Z,99899.53
2017-11-13T01:02:22.732Z,99901.73
2017-11-13T01:04:48.502Z,99898.38
2017-11-13T01:07:14.273Z,99901.07
2017-11-13T01:09:40.088Z,99900.20
2017-11-13T01:12:05.870Z,99908.55
2017-11-13T01:14:31.649Z,99909.63
2017-11-13T01:16:57.436Z,99918.69
2017-11-13T01:19:24.328Z,99920.50
2017-11-13T01:21:51.057Z,99918.48
2017-11-13T01:24:16.933Z,99917.44
2017-11-13T01:26:49.701Z,99922.73
2017-11-13T01:29:16.336Z,99919.22
2017-11-13T01:31:42.981Z,99922.47
2017-11-13T01:34:08.786Z,99920.70
2017-11-13T01:36:34.561Z,99928.52
2017-11-13T01:39:00.373Z,99926.70
2017-11-13T01:41:27.001Z,99923.43
2017-11-13T01:43:53.780Z,99920.11
2017-11-13T01:46:19.767Z,99921.87
2017-11-13T01:48:45.538Z,99928.15
2017-11-13T01:51:11.358Z,99926.48
2017-11-13T01:53:37.129Z,99926.73
2017-11-13T01:56:02.925Z,99930.25
2017-11-13T01:58:28.710Z,99937.73
2017-11-13T02:00:54.517Z,99940.95
2017-11-13T02:03:20.408Z,99945.13
2017-11-13T02:05:46.270Z,99949.85
2017-11-13T02:08:13.204Z,99955.66
2017-11-13T02:10:39.016Z,99963.51
2017-11-13T02:13:05.673Z,99963.45
2017-11-13T02:15:31.448Z,99968.48
2017-11-13T02:17:57.240Z,99964.44
2017-11-13T02:20:23.069Z,99975.16
2017-11-13T02:22:49.850Z,99978.95
2017-11-13T02:25:15.640Z,99983.63
2017-11-13T02:27:41.415Z,99984.95
2017-11-13T02:30:08.036Z,99989.17
2017-11-13T02:32:33.864Z,99996.54
2017-11-13T02:35:00.544Z,99998.59
2017-11-13T02:37:27.257Z,99993.89
2017-11-13T02:39:53.872Z,99990.16
2017-11-13T02:42:20.677Z,99993.34
2017-11-13T02:44:46.511Z,99998.61
2017-11-13T02:47:13.146Z,100003.44
2017-11-13T02:49:39.826Z,100003.94
2017-11-13T02:52:06.589Z,100001.93
2017-11-13T02:54:32.373Z,100000.44
2017-11-13T02:56:59.189Z,100000.41
2017-11-13T02:59:26.006Z,100002.12
2017-11-13T03:01:51.787Z,100002.92
2017-11-13T03:04:18.452Z,100009.87
2017-11-13T03:06:45.171Z,100018.05
2017-11-13T03:09:10.953Z,100023.86
2017-11-13T03:11:37.820Z,100018.25
2017-11-13T03:14:03.595Z,100024.75
2017-11-13T03:16:29.375Z,100026.35
2017-11-13T03:18:56.110Z,100026.22
2017-11-13T03:21:21.884Z,100032.27
2017-11-13T03:23:48.672Z,100031.36
2017-11-13T03:26:15.246Z,100038.02
2017-11-13T03:28:41.065Z,100025.20
2017-11-13T03:31:06.846Z,100039.22
2017-11-13T03:33:32.640Z,100042.70
2017-11-13T03:35:58.583Z,100049.86
2017-11-13T03:38:24.364Z,100051.98
2017-11-13T03:40:51.128Z,100058.70
2017-11-13T03:43:16.943Z,100060.36
2017-11-13T03:45:43.636Z,100072.97
2017-11-13T03:48:09.408Z,100079.02
2017-11-13T03:50:35.179Z,100087.14
2017-11-13T03:53:01.841Z,100092.69
2017-11-13T03:55:27.642Z,100091.86
2017-11-13T03:57:53.421Z,100091.66
2017-11-13T04:00:20.169Z,100102.48
2017-11-13T04:02:45.949Z,100100.99
2017-11-13T04:05:12.713Z,100100.70
2017-11-13T04:07:38.607Z,100100.29
2017-11-13T04:10:05.244Z,100109.41
2017-11-13T04:12:31.227Z,100109.10
2017-11-13T04:14:57.003Z,100112.67
2017-11-13T04:17:22.776Z,100114.48
2017-11-13T04:19:48.565Z,100115.75
2017-11-13T04:22:14.361Z,100122.84
2017-11-13T04:24:40.164Z,100126.22
2017-11-13T04:27:05.940Z,100124.02
2017-11-13T04:29:31.713Z,100130.91
2017-11-13T04:31:57.487Z,100131.80
2017-11-13T04:34:23.305Z,100145.08
2017-11-13T04:36:49.074Z,100148.89
2017-11-13T04:39:14.859Z,100154.59
2017-11-13T04:41:40.634Z,100158.13
2017-11-13T04:44:07.255Z,100164.11
2017-11-13T04:46:33.073Z,100169.70
2017-11-13T04:48:59.748Z,100173.52
2017-11-13T04:51:25.524Z,100175.00
2017-11-13T04:53:52.133Z,100181.44
2017-11-13T04:56:17.943Z,100191.90
2017-11-13T04:58:43.718Z,100190.91
2017-11-13T05:01:09.518Z,100195.20
2017-11-13T05:03:36.443Z,100201.27
2017-11-13T05:06:02.249Z,100198.16
2017-11-13T05:08:28.992Z,100202.47
2017-11-13T05:10:54.772Z,100205.17
2017-11-13T05:13:20.548Z,100218.92
2017-11-13T05:15:47.177Z,100215.95
2017-11-13T05:18:12.966Z,100219.45
2017-11-13T05:20:38.768Z,100229.61
2017-11-13T05:23:04.546Z,100230.52
2017-11-13T05:25:30.379Z,100241.20
2017-11-13T05:27:56.148Z,100245.44
2017-11-13T05:30:21.923Z,100244.25
2017-11-13T05:32:47.703Z,100250.63
2017-11-13T05:35:13.477Z,100259.12
2017-11-13T05:37:39.360Z,100256.59
2017-11-13T05:40:05.177Z,100251.43
2017-11-13T05:42:31.008Z,100256.78
2017-11-13T05:44:56.786Z,100258.17
2017-11-13T05:47:22.580Z,100268.84
2017-11-13T05:49:48.397Z,100270.38
2017-11-13T05:52:14.239Z,100267.65
2017-11-13T05:54:40.021Z,100275.56
2017-11-13T05:57:05.839Z,100269.30
2017-11-13T05:59:32.564Z,100272.71
2017-11-13T06:01:58.380Z,100268.88
2017-11-13T06:04:24.180Z,100275.22
2017-11-13T06:06:49.957Z,100285.11
2017-11-13T06:09:16.688Z,100286.58
2017-11-13T06:11:42.474Z,100292.55
2017-11-13T06:14:08.288Z,100296.83
2017-11-13T06:16:35.196Z,100301.81
2017-11-13T06:19:00.968Z,100299.73
2017-11-13T06:21:27.652Z,100299.18
2017-11-13T06:23:53.513Z,100304.67
2017-11-13T06:26:19.316Z,100304.95
2017-11-13T06:28:45.096Z,100305.92
2017-11-13T06:31:11.918Z,100312.20
2017-11-13T06:33:37.742Z,100313.66
2017-11-13T06:36:03.647Z,100322.94
2017-11-13T06:38:29.454Z,100326.50
2017-11-13T06:40:55.238Z,100329.34
2017-11-13T06:43:21.009Z,100336.52
2017-11-13T06:45:47.674Z,100334.45
2017-11-13T06:48:13.447Z,100338.94
2017-11-13T06:50:39.340Z,100340.42
2017-11-13T06:53:05.123Z,100339.66
2017-11-13T06:55:30.937Z,100345.27
2017-11-13T06:57:57.575Z,100348.29
2017-11-13T07:00:24.392Z,100357.29
2017-11-13T07:02:50.173Z,100360.42
2017-11-13T07:05:15.968Z,100359.79
2017-11-13T07:07:42.570Z,100365.23
2017-11-13T07:10:08.344Z,100363.41
2017-11-13T07:12:34.137Z,100367.53
2017-11-13T07:14:59.914Z,100370.02
2017-11-13T07:17:26.586Z,100372.37
2017-11-13T07:19:52.385Z,100373.17
2017-11-13T07:22:18.194Z,100381.80
2017-11-13T07:24:44.847Z,100384.44
2017-11-13T07:27:10.625Z,100386.39
2017-11-13T07:29:36.425Z,100387.72
2017-11-13T07:32:02.214Z,100388.89
2017-11-13T07:34:28.042Z,100393.36
2017-11-13T07:36:53.837Z,100392.72
2017-11-13T07:39:20.449Z,100394.45
2017-11-13T07:41:47.272Z,100396.42
2017-11-13T07:44:13.994Z,100390.44
2017-11-13T07:46:39.769Z,100390.78
2017-11-13T07:49:05.546Z,100394.18
2017-11-13T07:51:31.325Z,100399.83
2017-11-13T07:53:58.009Z,100404.02
2017-11-13T07:56:24.581Z,100404.16
2017-11-13T07:58:50.356Z,100403.67
2017-11-13T08:01:16.142Z,100398.30
2017-11-13T08:03:42.871Z,100402.53
2017-11-13T08:06:09.680Z,100404.91
2017-11-13T08:08:35.466Z,100412.36
2017-11-13T08:11:01.242Z,100413.63
2017-11-13T08:13:27.023Z,100418.16
2017-11-13T08:15:54.015Z,100434.73
2017-11-13T08:18:20.032Z,100435.03
2017-11-13T08:20:45.880Z,100442.97
2017-11-13T08:23:11.657Z,100437.73
2017-11-13T08:25:37.449Z,100446.30
2017-11-13T08:28:03.313Z,100449.70
2017-11-13T08:30:30.078Z,100452.43
2017-11-13T08:32:55.862Z,100461.20
2017-11-13T08:35:21.656Z,100459.95
2017-11-13T08:37:47.468Z,100459.42
2017-11-13T08:40:13.256Z,100473.08
2017-11-13T08:42:39.045Z,100477.17
2017-11-13T08:45:04.829Z,100476.97
2017-11-13T08:47:30.605Z,100487.84
2017-11-13T08:49:56.460Z,100486.66
2017-11-13T08:52:22.237Z,100498.92
2017-11-13T08:54:48.019Z,100502.66
2017-11-13T08:57:13.792Z,100507.20
2017-11-13T08:59:39.564Z,100515.79
2017-11-13T09:02:05.389Z,100518.62
2017-11-13T09:04:31.985Z,100523.66
2017-11-13T09:06:57.758Z,100531.33
2017-11-13T09:09:23.532Z,100534.74
2017-11-13T09:11:49.386Z,100530.77
2017-11-13T09:14:15.169Z,100527.86
2017-11-13T09:16:40.944Z,100539.13
2017-11-13T09:19:06.765Z,100541.13
2017-11-13T09:21:32.546Z,100546.84
2017-11-13T09:23:58.333Z,100549.50
2017-11-13T09:26:24.141Z,100553.61
2017-11-13T09:28:49.917Z,100554.45
2017-11-13T09:31:15.688Z,100556.91
2017-11-13T09:33:41.464Z,100560.09
2017-11-13T09:36:07.258Z,100573.61
2017-11-13T09:38:33.041Z,100577.38
2017-11-13T09:40:58.882Z,100584.41
2017-11-13T09:43:24.681Z,100590.84
2017-11-13T09:45:50.457Z,100589.52
2017-11-13T09:48:16.288Z,100586.06
2017-11-13T09:50:42.073Z,100588.88
2017-11-13T09:53:07.886Z,100586.43
2017-11-13T09:55:33.722Z,100591.41
2017-11-13T09:57:59.506Z,100594.02
2017-11-13T10:00:26.300Z,100597.14
2017-11-13T10:02:53.045Z,100604.67
2017-11-13T10:05:18.840Z,100609.30
2017-11-13T10:07:44.668Z,100607.64
2017-11-13T10:10:11.472Z,100613.43
2017-11-13T10:12:37.249Z,100618.35
2017-11-13T10:15:03.104Z,100624.72
2017-11-13T10:17:28.912Z,100628.03
2017-11-13T10:19:54.691Z,100637.80
2017-11-13T10:22:20.465Z,100632.81
2017-11-13T10:24:46.253Z,100636.44
2017-11-13T10:27:12.057Z,100631.56
2017-11-13T10:29:38.697Z,100637.96
2017-11-13T10:32:04.482Z,100639.44
2017-11-13T10:34:31.248Z,100642.92
2017-11-13T10:36:58.061Z,100645.81
2017-11-13T10:39:24.903Z,100654.88
2017-11-13T10:41:51.674Z,100658.63
2017-11-13T10:44:17.453Z,100666.09
2017-11-13T10:46:43.238Z,100670.37
2017-11-13T10:49:09.077Z,100670.00
2017-11-13T10:51:34.881Z,100665.37
2017-11-13T10:54:00.676Z,100660.30
2017-11-13T10:56:26.466Z,100666.66
2017-11-13T10:58:52.260Z,100667.72
2017-11-13T11:01:18.073Z,100667.73
2017-11-13T11:03:43.905Z,100665.84
2017-11-13T11:06:09.765Z,100663.47
2017-11-13T11:08:35.565Z,100667.17
2017-11-13T11:11:01.366Z,100668.25
2017-11-13T11:13:27.161Z,100670.97
2017-11-13T11:15:54.960Z,100681.05
2017-11-13T11:18:25.724Z,100683.80
2017-11-13T11:20:59.591Z,100682.61
2017-11-13T11:23:25.390Z,100689.44
2017-11-13T11:25:52.205Z,100699.19
2017-11-13T11:28:24.177Z,100695.55
2017-11-13T11:30:54.176Z,100708.37
2017-11-13T11:33:22.840Z,100701.55
2017-11-13T11:35:51.664Z,100701.31
2017-11-13T11:38:18.285Z,100701.08
2017-11-13T11:40:44.085Z,100700.75
2017-11-13T11:43:09.891Z,100702.13
2017-11-13T11:45:36.607Z,100704.28
2017-11-13T11:48:05.160Z,100696.48
2017-11-13T11:50:30.956Z,100695.56
2017-11-13T11:52:56.741Z,100699.84
2017-11-13T11:58:24.325Z,100699.72
2017-11-13T12:00:50.117Z,100701.24
2017-11-13T12:03:15.909Z,100703.88
2017-11-13T12:05:41.712Z,100701.33
2017-11-13T12:08:07.509Z,100705.98
2017-11-13T12:10:33.293Z,100703.58
2017-11-13T12:12:59.232Z,100704.41
2017-11-13T12:15:25.816Z,100704.59
2017-11-13T12:17:51.640Z,100701.00
2017-11-13T12:20:19.443Z,100706.53
2017-11-13T12:22:45.213Z,100707.95
2017-11-13T12:25:11.976Z,100706.09
2017-11-13T12:27:38.891Z,100706.44
2017-11-13T12:30:04.936Z,100713.77
2017-11-13T12:32:30.713Z,100717.10
2017-11-13T12:34:56.524Z,100715.20
2017-11-13T12:37:22.453Z,100717.77
2017-11-13T12:39:48.277Z,100723.67
2017-11-13T12:42:14.885Z,100724.36
2017-11-13T12:44:40.749Z,100732.67
2017-11-13T12:47:06.529Z,100731.36
2017-11-13T12:49:32.300Z,100747.91
2017-11-13T12:51:59.866Z,100744.27
2017-11-13T12:54:27.638Z,100749.21
2017-11-13T12:56:53.430Z,100748.64
2017-11-13T12:59:19.279Z,100749.31
2017-11-13T13:01:45.048Z,100745.13
2017-11-13T13:04:10.849Z,100755.44
2017-11-13T13:06:37.493Z,100754.86
2017-11-13T13:09:04.249Z,100751.05
2017-11-13T13:11:31.061Z,100755.52
2017-11-13T13:13:56.873Z,100759.99
2017-11-13T13:16:22.653Z,100767.25
2017-11-13T13:18:48.464Z,100767.80
2017-11-13T13:21:14.274Z,100769.94
2017-11-13T13:23:40.052Z,100770.52
2017-11-13T13:26:05.853Z,100775.56
2017-11-13T13:28:31.646Z,100784.97
2017-11-13T13:30:58.373Z,100781.22
2017-11-13T13:33:24.190Z,100788.05
2017-11-13T13:35:50.009Z,100790.65
2017-11-13T13:38:16.745Z,100797.40
2017-11-13T13:40:42.574Z,100808.42
2017-11-13T13:43:08.359Z,100814.61
2017-11-13T13:45:35.032Z,100812.58
2017-11-13T13:48:01.986Z,100812.58
2017-11-13T13:50:27.797Z,100809.67
2017-11-13T13:52:53.624Z,100814.20
2017-11-13T13:55:19.408Z,100811.20
2017-11-13T13:57:45.367Z,100818.73
2017-11-13T14:00:11.196Z,100817.25
2017-11-13T14:02:37.042Z,100819.27
2017-11-13T14:05:03.343Z,100823.73
2017-11-13T14:07:30.071Z,100830.15
2017-11-13T14:09:56.820Z,100837.40
2017-11-13T14:12:22.624Z,100846.11
2017-11-13T14:14:49.349Z,100841.36
2017-11-13T14:17:16.097Z,100838.95
2017-11-13T14:19:42.812Z,100854.44
2017-11-13T14:22:08.592Z,100857.36
2017-11-13T14:24:34.387Z,100857.73
2017-11-13T14:27:00.179Z,100854.89
2017-11-13T14:29:26.013Z,100851.61
2017-11-13T14:31:52.753Z,100860.70
2017-11-13T14:34:18.532Z,100863.33
2017-11-13T14:36:44.320Z,100861.23
2017-11-13T14:39:10.145Z,100863.53
2017-11-13T14:41:35.927Z,100863.28
2017-11-13T14:44:02.564Z,100860.61
2017-11-13T14:46:28.345Z,100868.97
2017-11-13T14:48:54.125Z,100866.89
2017-11-13T14:51:19.901Z,100865.85
2017-11-13T14:53:45.689Z,100863.58
2017-11-13T14:56:11.466Z,100865.16
2017-11-13T14:58:37.244Z,100873.20
2017-11-13T15:01:03.089Z,100869.73
2017-11-13T15:03:28.877Z,100874.45
2017-11-13T15:05:54.658Z,100884.53
2017-11-13T15:08:20.437Z,100891.39
2017-11-13T15:10:46.241Z,100893.10
2017-11-13T15:13:12.010Z,100889.06
2017-11-13T15:15:37.790Z,100889.30
2017-11-13T15:18:03.617Z,100890.97
2017-11-13T15:20:29.421Z,100893.00
2017-11-13T15:22:55.214Z,100898.57
2017-11-13T15:25:21.085Z,100900.27
2017-11-13T15:27:46.865Z,100903.41
2017-11-13T15:30:12.659Z,100902.02
2017-11-13T15:32:38.472Z,100898.29
2017-11-13T15:35:04.249Z,100897.27
2017-11-13T15:37:30.034Z,100908.47
2017-11-13T15:39:55.827Z,100909.41
2017-11-13T15:42:21.616Z,100905.57
2017-11-13T15:44:47.416Z,100915.86
2017-11-13T15:47:13.286Z,100914.11
2017-11-13T15:49:39.079Z,100919.96
2017-11-13T15:52:04.895Z,100919.55
2017-11-13T15:54:30.688Z,100919.16
2017-11-13T15:56:56.581Z,100922.16
2017-11-13T15:59:22.406Z,100924.19
2017-11-13T16:01:48.326Z,100931.19
2017-11-13T16:04:14.229Z,100922.38
2017-11-13T16:06:40.005Z,100922.44
2017-11-13T16:09:05.809Z,100926.59
2017-11-13T16:11:34.013Z,100936.20
2017-11-13T16:13:59.867Z,100942.58
2017-11-13T16:16:26.090Z,100945.83
2017-11-13T16:18:52.757Z,100946.59
2017-11-13T16:21:18.564Z,100950.73
2017-11-13T16:23:46.568Z,100953.08
2017-11-13T16:26:13.260Z,100960.81
2017-11-13T16:28:39.081Z,100960.53
2017-11-13T16:31:04.867Z,100965.59
2017-11-13T16:33:30.652Z,100972.17
2017-11-13T16:35:57.360Z,100968.38
2017-11-13T16:38:24.131Z,100980.41
2017-11-13T16:40:51.117Z,100986.30
2017-11-13T16:43:16.952Z,100990.54
2017-11-13T16:45:42.754Z,100994.45
2017-11-13T16:48:08.585Z,101003.61
2017-11-13T16:50:34.532Z,101011.17
2017-11-13T16:53:00.309Z,101011.67
2017-11-13T16:55:26.125Z,101014.31
2017-11-13T16:57:51.905Z,101024.22
2017-11-13T17:00:18.514Z,101025.47
2017-11-13T17:02:45.176Z,101027.84
2017-11-13T17:05:11.853Z,101032.97
2017-11-13T17:07:38.561Z,101040.26
2017-11-13T17:10:04.465Z,101039.72
2017-11-13T17:12:30.252Z,101044.73
2017-11-13T17:14:56.941Z,101049.25
2017-11-13T17:17:22.721Z,101050.02
2017-11-13T17:19:48.526Z,101050.23
2017-11-13T17:22:14.309Z,101056.61
2017-11-13T17:24:40.201Z,101056.63
2017-11-13T17:27:07.009Z,101060.31
2017-11-13T17:29:33.924Z,101058.84
2017-11-13T17:32:00.826Z,101058.70
2017-11-13T17:34:27.561Z,101055.75
2017-11-13T17:36:53.497Z,101055.72
2017-11-13T17:39:19.301Z,101064.80
2017-11-13T17:41:45.165Z,101060.53
2017-11-13T17:44:10.934Z,101067.71
2017-11-13T17:46:40.976Z,101072.55
2017-11-13T17:49:06.753Z,101071.50
2017-11-13T17:51:32.545Z,101076.80
2017-11-13T17:53:58.337Z,101079.08
2017-11-13T17:56:24.117Z,101086.05
2017-11-13T17:58:49.902Z,101094.00
2017-11-13T18:01:15.806Z,101100.16
2017-11-13T18:03:42.463Z,101103.77
2017-11-13T18:06:09.261Z,101101.13
2017-11-13T18:08:35.982Z,101113.45
2017-11-13T18:11:02.753Z,101122.12
2017-11-13T18:13:28.684Z,101123.11
2017-11-13T18:15:54.478Z,101125.47
2017-11-13T18:18:20.265Z,101132.56
2017-11-13T18:20:46.044Z,101130.62
2017-11-13T18:23:11.837Z,101137.61
2017-11-13T18:25:37.646Z,101142.85
2017-11-13T18:28:03.483Z,101143.16
2017-11-13T18:30:29.418Z,101148.03
2017-11-13T18:32:55.996Z,101149.64
2017-11-13T18:35:21.781Z,101150.27
2017-11-13T18:37:47.577Z,101161.94
2017-11-13T18:40:13.409Z,101166.91
2017-11-13T18:42:39.197Z,101165.59
2017-11-13T18:45:05.023Z,101169.91
2017-11-13T18:47:30.801Z,101182.27
2017-11-13T18:49:56.832Z,101177.05
2017-11-13T18:52:22.613Z,101171.44
2017-11-13T18:54:48.400Z,101177.91
2017-11-13T18:57:15.175Z,101179.37
2017-11-13T18:59:41.960Z,101182.45
2017-11-13T19:02:07.777Z,101184.92
2017-11-13T19:04:33.575Z,101190.89
2017-11-13T19:06:59.361Z,101196.19
2017-11-13T19:09:25.154Z,101197.08
2017-11-13T19:11:50.931Z,101205.61
2017-11-13T19:14:16.760Z,101203.09
2017-11-13T19:16:42.549Z,101207.79
2017-11-13T19:19:08.413Z,101207.69
2017-11-13T19:21:34.190Z,101222.69
2017-11-13T19:24:00.850Z,101235.57
2017-11-13T19:26:26.640Z,101237.01
2017-11-13T19:28:52.457Z,101238.09
2017-11-13T19:31:18.253Z,101242.55
2017-11-13T19:33:44.240Z,101241.52
2017-11-13T19:36:10.033Z,101244.16
2017-11-13T19:38:35.878Z,101249.20
2017-11-13T19:41:01.838Z,101247.30
2017-11-13T19:43:27.655Z,101248.30
2017-11-13T19:45:53.451Z,101252.83
2017-11-13T19:48:19.247Z,101255.25
2017-11-13T19:50:45.035Z,101257.06
2017-11-13T19:53:10.901Z,101260.41
2017-11-13T19:55:36.717Z,101263.61
2017-11-13T19:58:02.589Z,101260.36
2017-11-13T20:00:28.917Z,101259.94
2017-11-13T20:02:55.324Z,101261.61
2017-11-13T20:05:21.710Z,101263.20
2017-11-13T20:07:48.297Z,101268.72
2017-11-13T20:10:15.848Z,101264.75
2017-11-13T20:12:43.648Z,101268.66
2017-11-13T20:15:10.328Z,101271.15
2017-11-13T20:17:37.742Z,101269.51
2017-11-13T20:20:05.024Z,101271.83
2017-11-13T20:22:31.121Z,101275.32
2017-11-13T20:24:58.888Z,101278.84
2017-11-13T20:27:26.294Z,101281.52
2017-11-13T20:29:52.473Z,101284.55
2017-11-13T20:32:18.599Z,101295.38
2017-11-13T20:34:45.548Z,101292.95
2017-11-13T20:37:13.146Z,101292.24
2017-11-13T20:47:56.221Z,101311.56
2017-11-13T20:50:22.371Z,101315.88
2017-11-13T20:52:49.265Z,101325.78
2017-11-13T20:55:15.559Z,101329.19
2017-11-13T20:57:42.346Z,101329.25
2017-11-13T21:00:08.412Z,101329.02
2017-11-13T21:02:34.277Z,101330.31
2017-11-13T21:05:00.081Z,101334.74
2017-11-13T21:07:25.924Z,101335.81
2017-11-13T21:09:51.743Z,101332.80
2017-11-13T21:12:17.540Z,101332.67
2017-11-13T21:14:43.348Z,101331.34
2017-11-13T21:17:09.145Z,101340.26
2017-11-13T21:19:34.963Z,101347.64
2017-11-13T21:22:00.759Z,101347.78
2017-11-13T21:24:26.562Z,101344.77
2017-11-13T21:26:52.377Z,101337.54
2017-11-13T21:29:18.171Z,101348.55
2017-11-13T21:31:44.004Z,101343.31
2017-11-13T21:34:09.812Z,101348.05
2017-11-13T21:36:35.600Z,101337.05
2017-11-13T21:39:01.423Z,101342.27
2017-11-13T21:41:27.250Z,101344.80
2017-11-13T21:43:54.135Z,101354.03
2017-11-13T21:46:19.960Z,101354.88
2017-11-13T21:48:46.705Z,101359.33
2017-11-13T21:51:12.513Z,101359.78
2017-11-13T21:53:38.316Z,101361.24
2017-11-13T21:56:04.138Z,101359.77
2017-11-13T21:58:29.929Z,101366.11
2017-11-13T22:00:56.696Z,101355.09
2017-11-13T22:03:22.514Z,101369.04
2017-11-13T22:05:48.347Z,101365.54
2017-11-13T22:08:15.010Z,101370.38
2017-11-13T22:10:40.820Z,101378.02
2017-11-13T22:13:06.651Z,101388.27
2017-11-13T22:15:33.400Z,101388.18
2017-11-13T22:17:59.224Z,101382.77
2017-11-13T22:20:25.047Z,101384.23
2017-11-13T22:22:50.846Z,101386.16
2017-11-13T22:25:16.683Z,101395.45
2017-11-13T22:27:42.522Z,101390.50
2017-11-13T22:30:08.827Z,101402.27
2017-11-13T22:32:35.493Z,101401.97
2017-11-13T22:35:01.312Z,101396.42
2017-11-13T22:37:28.112Z,101396.63
2017-11-13T22:39:53.958Z,101409.84
2017-11-13T22:42:20.562Z,101411.32
2017-11-13T22:44:46.361Z,101404.50
2017-11-13T22:47:12.149Z,101406.46
2017-11-13T22:49:38.164Z,101404.13
2017-11-13T22:52:04.899Z,101398.92
2017-11-13T22:54:30.698Z,101397.75
2017-11-13T22:56:57.465Z,101397.13
2017-11-13T22:59:24.261Z,101405.90
2017-11-13T23:01:50.085Z,101400.05
2017-11-13T23:04:15.865Z,101401.27
2017-11-13T23:06:42.630Z,101403.80
2017-11-13T23:09:09.359Z,101401.70
2017-11-13T23:11:35.957Z,101407.97
2017-11-13T23:14:01.751Z,101413.84
2017-11-13T23:16:28.558Z,101407.78
2017-11-13T23:18:55.358Z,101411.95
2017-11-13T23:21:22.098Z,101410.15
2017-11-13T23:23:47.888Z,101408.09
2017-11-13T23:26:13.669Z,101405.20
2017-11-13T23:28:40.385Z,101404.70
2017-11-13T23:31:06.196Z,101404.47
2017-11-13T23:33:32.857Z,101402.13
2017-11-13T23:35:58.665Z,101399.11
2017-11-13T23:38:24.476Z,101406.45
2017-11-13T23:40:50.258Z,101412.77
2017-11-13T23:43:18.462Z,101415.13
2017-11-13T23:45:44.246Z,101422.10
2017-11-13T23:48:10.972Z,101423.08
2017-11-13T23:50:36.773Z,101415.55
2017-11-13T23:53:02.581Z,101425.80
2017-11-13T23:55:29.296Z,101427.50
2017-11-13T23:57:55.076Z,101434.09
